14:59
Airports
Links
Donate
Help keep this website running!
PayPal
Bitcoin
METAR
LFMC 161400Z 28017G28KT 250V320 9999 SCT026 BKN043 16/07 Q1011
Current Weather Conditions at LFMC
VFR 14:00:00 16-01-18
Altimeter:29.85 hg
Temp:16.0°c 61°f
Dew point:7.0°c 45°f
Wind:17 knots, 19.6 mph, 9 m/s, from 280°
Visibility:6.21 statute miles
4300(BKN) Broken
2600(SCT) Scattered
Past METAR reports
VFR 13:00:00 16-01-18
Altimeter:29.85 hg
Temp:16.0°c 61°f
Dew point:9.0°c 48°f
Wind:18 knots, 20.7 mph, 9 m/s, from 270°
Visibility:6.21 statute miles
4300(SCT) Scattered
2300(SCT) Scattered
LFMC 161300Z 27018KT 9999 SCT023 SCT043 16/09 Q1011
VFR 12:00:00 16-01-18
Altimeter:29.88 hg
Temp:16.0°c 61°f
Dew point:9.0°c 48°f
Wind:19 knots, 21.9 mph, 10 m/s, from 280°
Visibility:6.21 statute miles
2000(SCT) Scattered
LFMC 161200Z 28019KT 9999 SCT020 16/09 Q1012
VFR 11:00:00 16-01-18
Altimeter:29.91 hg
Temp:15.0°c 59°f
Dew point:9.0°c 48°f
Wind:13 knots, 15 mph, 7 m/s, from 290°
Visibility:6.21 statute miles
1800(SCT) Scattered
LFMC 161100Z 29013KT 9999 SCT018 15/09 Q1013
VFR 10:00:00 16-01-18
Altimeter:29.94 hg
Temp:12.0°c 54°f
Dew point:9.0°c 48°f
Wind:8 knots, 9.2 mph, 4 m/s, from 270°
Visibility:6.21 statute miles
4300(SCT) Scattered
1800(SCT) Scattered
LFMC 161000Z 27008KT 9999 SCT018 SCT043 12/09 Q1014
VFR 09:00:00 16-01-18
Altimeter:29.97 hg
Temp:11.0°c 52°f
Dew point:8.0°c 46°f
Wind:12 knots, 13.8 mph, 6 m/s, from 270°
Visibility:6.21 statute miles
4300(BKN) Broken
1800(SCT) Scattered
LFMC 160900Z 27012KT 9999 SCT018 BKN043 11/08 Q1015
TAF
No TAF for LFMC
Forecast at LFMC
No Forecast Reports for LFMC